Time;durP1;ratioP1;P1;durP2;ratioP2;P2;SDS_P1;SDS_P2;PMS_P1;PMS_P2;Temp;Humidity;BMP_temperature;BMP_pressure;BME280_temperature;BME280_humidity;BME280_pressure;Samples;Min_cycle;Max_cycle;Signal;HPM_P1;HPM_P2
2021/12/22 00:00:22;;;;;;;1999.90;999.90;;;-3.00;99.90;;;;;;5092244;28;20444;-70
2021/12/22 00:02:50;;;;;;;1999.90;999.90;;;-2.90;99.90;;;;;;5091772;28;20457;-70
2021/12/22 00:05:18;;;;;;;1999.90;999.90;;;-2.90;99.90;;;;;;5092539;28;20889;-70
2021/12/22 00:07:45;;;;;;;1999.90;999.90;;;-2.90;99.90;;;;;;5091641;28;20526;-70
2021/12/22 00:10:13;;;;;;;1999.90;999.90;;;-2.90;99.90;;;;;;5092076;28;20445;-69
2021/12/22 00:12:39;;;;;;;1999.90;999.90;;;-3.00;99.90;;;;;;5092296;28;20799;-70
2021/12/22 00:15:08;;;;;;;1999.90;999.90;;;-3.00;99.90;;;;;;5074735;28;20790;-70
2021/12/22 00:17:35;;;;;;;1999.90;999.90;;;-3.00;99.90;;;;;;5071803;28;20485;-70
2021/12/22 00:20:04;;;;;;;1999.90;999.90;;;-2.90;99.90;;;;;;5071679;28;21079;-67
2021/12/22 00:22:30;;;;;;;1999.90;999.90;;;-3.10;99.90;;;;;;5083000;28;20457;-70
2021/12/22 00:24:57;;;;;;;1999.90;999.90;;;-3.20;99.90;;;;;;5092385;28;20456;-70
2021/12/22 00:27:24;;;;;;;1999.90;999.90;;;-3.40;99.90;;;;;;5095743;28;20464;-69
2021/12/22 00:29:52;;;;;;;1999.90;999.90;;;-3.40;99.90;;;;;;5095403;28;20867;-69
2021/12/22 00:32:19;;;;;;;1999.90;999.90;;;-3.30;99.90;;;;;;5095913;28;20451;-68
2021/12/22 00:34:52;;;;;;;1999.90;999.90;;;-3.30;99.90;;;;;;5095260;28;20813;-69
2021/12/22 00:37:21;;;;;;;1999.90;999.90;;;-3.30;99.90;;;;;;5121508;22;20488;-63
2021/12/22 00:39:49;;;;;;;1999.90;999.90;;;-3.60;99.90;;;;;;5055899;28;20496;-65
2021/12/22 00:42:17;;;;;;;1999.90;999.90;;;-3.80;99.90;;;;;;5052250;28;20565;-67
2021/12/22 00:44:46;;;;;;;1999.90;999.90;;;-3.80;99.90;;;;;;5051281;28;21030;-67
2021/12/22 00:47:13;;;;;;;1999.90;999.90;;;-3.90;99.90;;;;;;5051086;28;20474;-67
2021/12/22 00:49:39;;;;;;;1999.90;999.90;;;-4.00;99.90;;;;;;5050620;28;20477;-66
2021/12/22 00:52:07;;;;;;;1999.90;999.90;;;-3.90;99.90;;;;;;5050171;28;20446;-68
2021/12/22 00:54:35;;;;;;;1999.90;999.90;;;-3.70;99.90;;;;;;5049810;28;20450;-66
2021/12/22 00:57:04;;;;;;;1999.90;999.90;;;-3.70;99.90;;;;;;5050818;28;20446;-67
2021/12/22 00:59:32;;;;;;;1999.90;999.90;;;-3.70;99.90;;;;;;5049876;28;21040;-67
2021/12/22 01:01:58;;;;;;;1999.90;999.90;;;-3.70;99.90;;;;;;5050927;28;20454;-67
2021/12/22 01:04:25;;;;;;;1999.90;999.90;;;-3.40;99.90;;;;;;5050711;28;20443;-67
2021/12/22 01:06:52;;;;;;;1999.90;999.90;;;-3.60;99.90;;;;;;5050132;28;20451;-66
2021/12/22 01:09:19;;;;;;;1999.90;999.90;;;-3.50;99.90;;;;;;5049815;28;20470;-66
2021/12/22 01:11:47;;;;;;;1999.90;999.90;;;-3.40;99.90;;;;;;5050103;28;21039;-67
2021/12/22 01:14:14;;;;;;;1999.90;999.90;;;-3.40;99.90;;;;;;5049720;28;20462;-67
2021/12/22 01:16:46;;;;;;;1999.90;999.90;;;-3.50;99.90;;;;;;5050217;28;20447;-66
2021/12/22 01:19:16;;;;;;;1999.90;999.90;;;-3.40;99.90;;;;;;5050536;28;20493;-66
2021/12/22 01:21:46;;;;;;;1999.90;999.90;;;-3.40;99.90;;;;;;5049457;28;20458;-66
2021/12/22 01:24:22;;;;;;;1999.90;999.90;;;-3.40;99.90;;;;;;5050308;28;20942;-67
2021/12/22 01:26:57;;;;;;;1999.90;999.90;;;-3.60;99.90;;;;;;5048792;28;20453;-67
2021/12/22 01:29:23;;;;;;;1999.90;999.90;;;-3.70;99.90;;;;;;5050122;28;20470;-67
2021/12/22 01:31:50;;;;;;;1999.90;999.90;;;-3.70;99.90;;;;;;5049958;28;20447;-66
2021/12/22 01:34:17;;;;;;;1999.90;999.90;;;-3.70;99.90;;;;;;5049677;28;20453;-65
2021/12/22 01:36:43;;;;;;;1999.90;999.90;;;-3.70;99.90;;;;;;5050105;28;20442;-66
2021/12/22 01:39:10;;;;;;;1999.90;999.90;;;-3.80;99.90;;;;;;5052387;28;20489;-67
2021/12/22 01:41:36;;;;;;;1999.90;999.90;;;-3.80;99.90;;;;;;5053408;28;20450;-67
2021/12/22 01:44:07;;;;;;;1999.90;999.90;;;-3.80;99.90;;;;;;5053693;28;20507;-67
2021/12/22 01:49:17;;;;;;;1999.90;999.90;;;-3.80;99.90;;;;;;5052235;28;20445;-67
2021/12/22 01:51:51;;;;;;;1999.90;999.90;;;-3.80;99.90;;;;;;5053128;28;20442;-66
2021/12/22 01:54:29;;;;;;;1999.90;999.90;;;-3.80;99.90;;;;;;5048869;28;20443;-67
2021/12/22 01:57:00;;;;;;;1999.90;999.90;;;-3.90;99.90;;;;;;5050188;28;20442;-66
2021/12/22 01:59:28;;;;;;;1999.90;999.90;;;-3.90;99.90;;;;;;5049501;28;20486;-65
2021/12/22 02:01:55;;;;;;;1999.90;999.90;;;-4.00;99.90;;;;;;5048959;28;20455;-66
2021/12/22 02:04:22;;;;;;;1999.90;999.90;;;-4.00;99.90;;;;;;5049563;28;20454;-66
2021/12/22 02:06:49;;;;;;;1999.90;999.90;;;-4.00;99.90;;;;;;5049037;28;20504;-67
2021/12/22 02:09:26;;;;;;;1999.90;999.90;;;-4.10;99.90;;;;;;5049066;28;20512;-66
2021/12/22 02:11:53;;;;;;;1999.90;999.90;;;-4.30;99.90;;;;;;5049995;28;20504;-64
2021/12/22 02:14:19;;;;;;;1999.90;999.90;;;-4.50;99.90;;;;;;5049115;28;20516;-67
2021/12/22 02:16:47;;;;;;;1999.90;999.90;;;-4.50;99.90;;;;;;5049596;28;20457;-66
2021/12/22 02:19:14;;;;;;;1999.90;999.90;;;-4.50;99.90;;;;;;5048270;28;21006;-67
2021/12/22 02:21:47;;;;;;;1999.90;999.90;;;-4.40;99.90;;;;;;5048965;28;20545;-66
2021/12/22 02:24:14;;;;;;;1999.90;999.90;;;-4.40;99.90;;;;;;5048897;28;20453;-66
2021/12/22 02:26:47;;;;;;;1999.90;999.90;;;-4.40;99.90;;;;;;5049236;28;20484;-66
2021/12/22 02:29:20;;;;;;;1999.90;999.90;;;-4.40;99.90;;;;;;5048351;28;20506;-67
2021/12/22 02:32:00;;;;;;;1999.90;999.90;;;-4.40;99.90;;;;;;5048408;28;20843;-66
2021/12/22 02:34:27;;;;;;;1999.90;999.90;;;-4.60;99.90;;;;;;5049051;28;20451;-67
2021/12/22 02:36:59;;;;;;;1999.90;999.90;;;-4.60;99.90;;;;;;5048151;28;20511;-67
2021/12/22 02:39:26;;;;;;;1999.90;999.90;;;-4.60;99.90;;;;;;5049653;28;21002;-67
2021/12/22 02:41:52;;;;;;;1999.90;999.90;;;-4.60;99.90;;;;;;5048698;28;20478;-66
2021/12/22 02:44:19;;;;;;;1999.90;999.90;;;-4.50;99.90;;;;;;5048347;28;20451;-68
2021/12/22 02:46:46;;;;;;;1999.90;999.90;;;-4.40;99.90;;;;;;5048518;28;20951;-67
2021/12/22 02:49:12;;;;;;;1999.90;999.90;;;-4.40;99.90;;;;;;5050685;28;20466;-67
2021/12/22 02:51:40;;;;;;;1999.90;999.90;;;-4.80;99.90;;;;;;5051837;28;20438;-67
2021/12/22 02:54:14;;;;;;;1999.90;999.90;;;-4.40;99.90;;;;;;5052314;28;20914;-67
2021/12/22 02:56:57;;;;;;;1999.90;999.90;;;-4.40;99.90;;;;;;5052467;28;20453;-67
2021/12/22 02:59:48;;;;;;;1999.90;999.90;;;-4.40;99.90;;;;;;5052023;28;20966;-66
2021/12/22 03:02:24;;;;;;;1999.90;999.90;;;-4.60;99.90;;;;;;5049822;28;20486;-67
2021/12/22 03:04:55;;;;;;;1999.90;999.90;;;-4.70;99.90;;;;;;5048236;28;20535;-66
2021/12/22 03:07:25;;;;;;;1999.90;999.90;;;-4.60;99.90;;;;;;5048116;28;20878;-67
2021/12/22 03:10:00;;;;;;;1999.90;999.90;;;-4.50;99.90;;;;;;5047899;28;20958;-65
2021/12/22 03:12:31;;;;;;;1999.90;999.90;;;-4.50;99.90;;;;;;5048356;28;20450;-66
2021/12/22 03:14:57;;;;;;;1999.90;999.90;;;-4.50;99.90;;;;;;5048138;28;20450;-67
2021/12/22 03:17:24;;;;;;;1999.90;999.90;;;-4.50;99.90;;;;;;5048037;28;20488;-67
2021/12/22 03:19:51;;;;;;;1999.90;999.90;;;-4.50;99.90;;;;;;5047879;28;20482;-66
2021/12/22 03:22:20;;;;;;;1999.90;999.90;;;-4.60;99.90;;;;;;5047679;28;20450;-66
2021/12/22 03:24:49;;;;;;;1999.90;999.90;;;-4.60;99.90;;;;;;5048286;28;20537;-66
2021/12/22 03:27:18;;;;;;;1999.90;999.90;;;-4.50;99.90;;;;;;5047600;28;20447;-66
2021/12/22 03:29:45;;;;;;;1999.90;999.90;;;-4.60;99.90;;;;;;5047710;28;20443;-67
2021/12/22 03:32:12;;;;;;;1999.90;999.90;;;-4.60;99.90;;;;;;5047809;28;20523;-66
2021/12/22 03:34:39;;;;;;;1999.90;999.90;;;-4.60;99.90;;;;;;5048132;28;21028;-67
2021/12/22 03:37:07;;;;;;;1999.90;999.90;;;-4.60;99.90;;;;;;5047753;28;20459;-67
2021/12/22 03:39:35;;;;;;;1999.90;999.90;;;-4.60;99.90;;;;;;5047745;28;21002;-67
2021/12/22 03:42:02;;;;;;;1999.90;999.90;;;-4.60;99.90;;;;;;5047530;28;20477;-67
2021/12/22 03:44:30;;;;;;;1999.90;999.90;;;-4.70;99.90;;;;;;5049855;28;20454;-67
2021/12/22 03:46:59;;;;;;;1999.90;999.90;;;-4.60;99.90;;;;;;5051139;28;20477;-67
2021/12/22 03:49:27;;;;;;;1999.90;999.90;;;-4.60;99.90;;;;;;5051530;28;20549;-67
2021/12/22 03:51:53;;;;;;;1999.90;999.90;;;-4.50;99.90;;;;;;5051567;28;20459;-67
2021/12/22 03:54:20;;;;;;;1999.90;999.90;;;-4.60;99.90;;;;;;5050074;28;20551;-66
2021/12/22 03:56:47;;;;;;;1999.90;999.90;;;-4.70;99.90;;;;;;5047882;28;20455;-67
2021/12/22 03:59:13;;;;;;;1999.90;999.90;;;-4.70;99.90;;;;;;5049326;28;20478;-65
2021/12/22 04:01:42;;;;;;;1999.90;999.90;;;-4.80;99.90;;;;;;5050578;28;20443;-66
2021/12/22 04:04:13;;;;;;;1999.90;999.90;;;-4.70;99.90;;;;;;5051539;28;20454;-66
2021/12/22 04:06:41;;;;;;;1999.90;999.90;;;-4.70;99.90;;;;;;5050125;28;20458;-67
2021/12/22 04:09:08;;;;;;;1999.90;999.90;;;-4.70;99.90;;;;;;5051709;28;20466;-66
2021/12/22 04:11:35;;;;;;;1999.90;999.90;;;-4.80;99.90;;;;;;5051090;28;20480;-66
2021/12/22 04:14:02;;;;;;;1999.90;999.90;;;-4.80;99.90;;;;;;5052208;28;20480;-66
2021/12/22 04:16:29;;;;;;;1999.90;999.90;;;-4.80;99.90;;;;;;5051303;28;20878;-66
2021/12/22 04:18:57;;;;;;;1999.90;999.90;;;-4.80;99.90;;;;;;5051407;28;21075;-67
2021/12/22 04:21:24;;;;;;;1999.90;999.90;;;-4.80;99.90;;;;;;5051228;28;21008;-66
2021/12/22 04:23:50;;;;;;;1999.90;999.90;;;-4.80;99.90;;;;;;5051924;28;20450;-67
2021/12/22 04:26:17;;;;;;;1999.90;999.90;;;-4.80;99.90;;;;;;5051671;28;20442;-66
2021/12/22 04:28:44;;;;;;;1999.90;999.90;;;-4.80;99.90;;;;;;5051320;28;20473;-65
2021/12/22 04:31:11;;;;;;;1999.90;999.90;;;-4.80;99.90;;;;;;5050557;28;20450;-67
2021/12/22 04:33:38;;;;;;;1999.90;999.90;;;-4.80;99.90;;;;;;5051404;28;20492;-66
2021/12/22 04:36:06;;;;;;;1999.90;999.90;;;-4.80;99.90;;;;;;5052516;28;20850;-66
2021/12/22 04:38:33;;;;;;;1999.90;999.90;;;-4.80;99.90;;;;;;5054748;28;20489;-66
2021/12/22 04:41:00;;;;;;;1999.90;999.90;;;-4.60;99.90;;;;;;5054504;28;20939;-67
2021/12/22 04:43:26;;;;;;;1999.90;999.90;;;-4.70;99.90;;;;;;5054670;28;20879;-67
2021/12/22 04:45:53;;;;;;;1999.90;999.90;;;-4.70;99.90;;;;;;5053394;28;20517;-66
2021/12/22 04:48:20;;;;;;;1999.90;999.90;;;-4.80;99.90;;;;;;5050976;28;20466;-66
2021/12/22 04:50:46;;;;;;;1999.90;999.90;;;-4.80;99.90;;;;;;5050401;28;20443;-66
2021/12/22 04:53:19;;;;;;;1999.90;999.90;;;-4.90;99.90;;;;;;5051571;28;20450;-67
2021/12/22 04:55:46;;;;;;;1999.90;999.90;;;-5.00;99.90;;;;;;5051407;28;20449;-66
2021/12/22 04:58:13;;;;;;;1999.90;999.90;;;-5.10;99.90;;;;;;5051364;28;20466;-66
2021/12/22 05:00:40;;;;;;;1999.90;999.90;;;-5.10;99.90;;;;;;5050708;28;20478;-67
2021/12/22 05:03:07;;;;;;;1999.90;999.90;;;-5.10;99.90;;;;;;5051579;28;21053;-66
2021/12/22 05:05:34;;;;;;;1999.90;999.90;;;-5.10;99.90;;;;;;5051250;28;20508;-67
2021/12/22 05:08:01;;;;;;;1999.90;999.90;;;-5.00;99.90;;;;;;5050827;28;20896;-66
2021/12/22 05:10:30;;;;;;;1999.90;999.90;;;-5.10;99.90;;;;;;5050118;28;20580;-66
2021/12/22 05:12:57;;;;;;;1999.90;999.90;;;-5.20;99.90;;;;;;5050690;28;20516;-65
2021/12/22 05:15:28;;;;;;;1999.90;999.90;;;-5.20;99.90;;;;;;5051635;28;20500;-66
2021/12/22 05:20:54;;;;;;;1999.90;999.90;;;-5.30;99.90;;;;;;4989110;28;20596;-65
2021/12/22 05:23:21;;;;;;;1999.90;999.90;;;-5.30;99.90;;;;;;4989550;28;20449;-67
2021/12/22 05:25:49;;;;;;;1999.90;999.90;;;-5.40;99.90;;;;;;5015618;28;20446;-67
2021/12/22 05:28:15;;;;;;;1999.90;999.90;;;-5.40;99.90;;;;;;5050698;28;20462;-66
2021/12/22 05:30:46;;;;;;;1999.90;999.90;;;-5.30;99.90;;;;;;5049876;28;20447;-68
2021/12/22 05:33:13;;;;;;;1999.90;999.90;;;-5.40;99.90;;;;;;5049710;28;20450;-68
2021/12/22 05:35:39;;;;;;;1999.90;999.90;;;-5.30;99.90;;;;;;5049604;28;20442;-69
2021/12/22 05:38:06;;;;;;;1999.90;999.90;;;-5.20;99.90;;;;;;5049005;28;20469;-68
2021/12/22 05:40:33;;;;;;;1999.90;999.90;;;-5.10;99.90;;;;;;5049624;28;20524;-69
2021/12/22 05:43:01;;;;;;;1999.90;999.90;;;-5.10;99.90;;;;;;5050177;28;20451;-68
2021/12/22 05:45:27;;;;;;;1999.90;999.90;;;-5.10;99.90;;;;;;5049083;28;20458;-69
2021/12/22 05:47:54;;;;;;;1999.90;999.90;;;-5.10;99.90;;;;;;5049749;28;20510;-68
2021/12/22 05:50:22;;;;;;;1999.90;999.90;;;-5.10;99.90;;;;;;5049424;28;20948;-70
2021/12/22 05:52:49;;;;;;;1999.90;999.90;;;-5.10;99.90;;;;;;5049355;28;20454;-70
2021/12/22 05:55:16;;;;;;;1999.90;999.90;;;-5.10;99.90;;;;;;5049087;28;20454;-69
2021/12/22 05:57:43;;;;;;;1999.90;999.90;;;-5.10;99.90;;;;;;5049187;28;20462;-69
2021/12/22 06:00:12;;;;;;;1999.90;999.90;;;-5.10;99.90;;;;;;5049667;28;21098;-68
2021/12/22 06:02:39;;;;;;;1999.90;999.90;;;-5.10;99.90;;;;;;5049031;28;20584;-68
2021/12/22 06:05:07;;;;;;;1999.90;999.90;;;-5.10;99.90;;;;;;5048861;28;20473;-69
2021/12/22 06:07:34;;;;;;;1999.90;999.90;;;-5.20;99.90;;;;;;5048539;28;20447;-70
2021/12/22 06:10:00;;;;;;;1999.90;999.90;;;-5.20;99.90;;;;;;5049110;28;20450;-69
2021/12/22 06:12:27;;;;;;;1999.90;999.90;;;-5.10;99.90;;;;;;5048784;28;20532;-68
2021/12/22 06:14:54;;;;;;;1999.90;999.90;;;-5.20;99.90;;;;;;5049065;28;20966;-69
2021/12/22 06:17:22;;;;;;;1999.90;999.90;;;-5.30;99.90;;;;;;5049148;28;20938;-69
2021/12/22 06:19:48;;;;;;;1999.90;999.90;;;-5.30;99.90;;;;;;5048667;28;21063;-68
2021/12/22 06:22:15;;;;;;;1999.90;999.90;;;-5.40;99.90;;;;;;5047718;28;20473;-69
2021/12/22 06:24:42;;;;;;;1999.90;999.90;;;-5.50;99.90;;;;;;5050621;28;20442;-69
2021/12/22 06:27:09;;;;;;;1999.90;999.90;;;-5.40;99.90;;;;;;5049781;28;20939;-69
2021/12/22 06:29:35;;;;;;;1999.90;999.90;;;-5.40;99.90;;;;;;5049235;28;20885;-68
2021/12/22 06:32:02;;;;;;;1999.90;999.90;;;-5.40;99.90;;;;;;5048694;28;20875;-69
2021/12/22 06:34:30;;;;;;;1999.90;999.90;;;-5.40;99.90;;;;;;5048146;28;20451;-68
2021/12/22 06:36:57;;;;;;;1999.90;999.90;;;-5.40;99.90;;;;;;5049220;28;20857;-68
2021/12/22 06:39:23;;;;;;;1999.90;999.90;;;-5.40;99.90;;;;;;5048230;28;20490;-68
2021/12/22 06:41:50;;;;;;;1999.90;999.90;;;-5.40;99.90;;;;;;5048970;28;20473;-69
2021/12/22 06:44:17;;;;;;;1999.90;999.90;;;-5.40;99.90;;;;;;5049036;28;20439;-69
2021/12/22 06:46:44;;;;;;;1999.90;999.90;;;-5.40;99.90;;;;;;5051350;28;20480;-69
2021/12/22 06:49:11;;;;;;;1999.90;999.90;;;-5.40;99.90;;;;;;5048444;28;20470;-69
2021/12/22 06:51:39;;;;;;;1999.90;999.90;;;-5.40;99.90;;;;;;5048602;28;20580;-69
2021/12/22 06:54:06;;;;;;;1999.90;999.90;;;-5.40;99.90;;;;;;5048137;28;20499;-70
2021/12/22 06:56:33;;;;;;;1999.90;999.90;;;-5.40;99.90;;;;;;5048501;28;20450;-69
2021/12/22 06:59:01;;;;;;;1999.90;999.90;;;-5.40;99.90;;;;;;5047395;28;20482;-68
2021/12/22 07:01:31;;;;;;;1999.90;999.90;;;-5.40;99.90;;;;;;5047283;28;20458;-68
2021/12/22 07:03:58;;;;;;;1999.90;999.90;;;-5.40;99.90;;;;;;5047855;28;20458;-68
2021/12/22 07:06:25;;;;;;;1999.90;999.90;;;-5.40;99.90;;;;;;5048039;28;20454;-69
2021/12/22 07:08:53;;;;;;;1999.90;999.90;;;-5.30;99.90;;;;;;5047472;28;20564;-69
2021/12/22 07:11:19;;;;;;;1999.90;999.90;;;-5.30;99.90;;;;;;5048486;28;20443;-69
2021/12/22 07:13:46;;;;;;;1999.90;999.90;;;-5.30;99.90;;;;;;5047656;28;20438;-67
2021/12/22 07:16:14;;;;;;;1999.90;999.90;;;-5.30;99.90;;;;;;5078501;22;20501;-69
2021/12/22 07:18:40;;;;;;;1999.90;999.90;;;-5.30;99.90;;;;;;5060498;28;20520;-70
2021/12/22 07:21:07;;;;;;;1999.90;999.90;;;-5.30;99.90;;;;;;5051637;28;20478;-70
2021/12/22 07:23:33;;;;;;;1999.90;999.90;;;-5.30;99.90;;;;;;5052052;28;20454;-69
2021/12/22 07:26:01;;;;;;;1999.90;999.90;;;-5.30;99.90;;;;;;5054987;28;20512;-71
2021/12/22 07:28:28;;;;;;;1999.90;999.90;;;-5.30;99.90;;;;;;5057793;28;20450;-69
2021/12/22 07:30:55;;;;;;;1999.90;999.90;;;-5.30;99.90;;;;;;5057299;28;20451;-69
2021/12/22 07:33:21;;;;;;;1999.90;999.90;;;-5.30;99.90;;;;;;5058104;28;20488;-69
2021/12/22 07:35:58;;;;;;;1999.90;999.90;;;-5.60;99.90;;;;;;5056581;28;20495;-69
2021/12/22 07:38:32;;;;;;;1999.90;999.90;;;-5.50;99.90;;;;;;5057268;28;20444;-70
2021/12/22 07:41:03;;;;;;;1999.90;999.90;;;-5.40;99.90;;;;;;5058572;28;20484;-70
2021/12/22 07:43:30;;;;;;;1999.90;999.90;;;-5.30;99.90;;;;;;5057089;28;20441;-72
2021/12/22 07:45:58;;;;;;;1999.90;999.90;;;-5.00;99.90;;;;;;5056577;28;20466;-70
2021/12/22 07:48:24;;;;;;;1999.90;999.90;;;-5.30;99.90;;;;;;5057508;28;20504;-69
2021/12/22 07:50:52;;;;;;;1999.90;999.90;;;-5.10;99.90;;;;;;5056441;28;20441;-69
2021/12/22 07:53:18;;;;;;;1999.90;999.90;;;-5.10;99.90;;;;;;5057544;28;20507;-71
2021/12/22 07:55:45;;;;;;;1999.90;999.90;;;-5.20;99.90;;;;;;5057046;28;20466;-70
2021/12/22 07:58:14;;;;;;;1999.90;999.90;;;-5.20;99.90;;;;;;5057353;28;20484;-69
2021/12/22 08:00:41;;;;;;;1999.90;999.90;;;-5.20;99.90;;;;;;5057934;28;20895;-70
2021/12/22 08:03:11;;;;;;;1999.90;999.90;;;-5.20;99.90;;;;;;5057696;28;20468;-69
2021/12/22 08:05:38;;;;;;;1999.90;999.90;;;-5.20;99.90;;;;;;5057558;28;20481;-68
2021/12/22 08:08:05;;;;;;;1999.90;999.90;;;-5.10;99.90;;;;;;5058272;28;20519;-69
2021/12/22 08:10:32;;;;;;;1999.90;999.90;;;-5.00;99.90;;;;;;5058118;28;20446;-69
2021/12/22 08:12:59;;;;;;;1999.90;999.90;;;-4.70;99.90;;;;;;5057927;28;20453;-69
2021/12/22 08:15:27;;;;;;;1999.90;999.90;;;-4.80;99.90;;;;;;5058580;28;20478;-72
2021/12/22 08:17:54;;;;;;;1999.90;999.90;;;-4.70;99.90;;;;;;5057730;28;20450;-71
2021/12/22 08:20:22;;;;;;;1999.90;999.90;;;-4.60;99.90;;;;;;5057789;28;20482;-71
2021/12/22 08:22:49;;;;;;;1999.90;999.90;;;-4.50;99.90;;;;;;5056857;28;20451;-70
2021/12/22 08:25:16;;;;;;;1999.90;999.90;;;-4.40;99.90;;;;;;5058658;28;20446;-69
2021/12/22 08:27:43;;;;;;;1999.90;999.90;;;-4.40;99.90;;;;;;5056205;28;20462;-70
2021/12/22 08:30:10;;;;;;;1999.90;999.90;;;-4.10;99.90;;;;;;5061185;28;20449;-68
2021/12/22 08:32:38;;;;;;;1999.90;999.90;;;-4.30;99.90;;;;;;5070136;28;20445;-71
2021/12/22 08:35:07;;;;;;;1999.90;999.90;;;-4.30;99.90;;;;;;5050790;28;20500;-70
2021/12/22 08:40:20;;;;;;;1999.90;999.90;;;-4.10;99.90;;;;;;5051006;28;21126;-71
2021/12/22 08:42:47;;;;;;;1999.90;999.90;;;-3.90;99.90;;;;;;5051732;28;20479;-70
2021/12/22 08:45:15;;;;;;;1999.90;999.90;;;-3.70;99.90;;;;;;5051097;28;20450;-73
2021/12/22 08:47:43;;;;;;;1999.90;999.90;;;-3.60;99.90;;;;;;5054697;28;20449;-72
2021/12/22 08:50:11;;;;;;;1999.90;999.90;;;-3.50;99.90;;;;;;5057876;28;20450;-70
2021/12/22 08:52:38;;;;;;;1999.90;999.90;;;-3.40;99.90;;;;;;5054921;28;20477;-70
2021/12/22 08:55:06;;;;;;;1999.90;999.90;;;-3.30;99.90;;;;;;5054379;28;20454;-70
2021/12/22 08:57:34;;;;;;;1999.90;999.90;;;-3.10;99.90;;;;;;5054838;28;21000;-70
2021/12/22 09:00:01;;;;;;;1999.90;999.90;;;-3.00;99.90;;;;;;5053477;28;20488;-68
2021/12/22 09:02:28;;;;;;;1999.90;999.90;;;-2.80;99.90;;;;;;5054788;28;20452;-71
2021/12/22 09:04:56;;;;;;;1999.90;999.90;;;-2.30;99.90;;;;;;5073702;28;20449;-70
2021/12/22 09:07:22;;;;;;;1999.90;999.90;;;-2.60;99.90;;;;;;5059857;28;20874;-69
2021/12/22 09:09:49;;;;;;;1999.90;999.90;;;-2.40;99.90;;;;;;5054738;28;20446;-70
2021/12/22 09:12:16;;;;;;;1999.90;999.90;;;-1.90;99.90;;;;;;5055143;28;20442;-70
2021/12/22 09:14:43;;;;;;;1999.90;999.90;;;-2.20;99.90;;;;;;5054775;28;20503;-70
2021/12/22 09:17:11;;;;;;;1999.90;999.90;;;-1.70;99.90;;;;;;5056726;28;20857;-70
2021/12/22 09:19:37;;;;;;;1999.90;999.90;;;-2.10;99.90;;;;;;5072413;28;20449;-70
2021/12/22 09:22:05;;;;;;;1999.90;999.90;;;-2.20;99.90;;;;;;5073914;28;20526;-69
2021/12/22 09:24:32;;;;;;;1999.90;999.90;;;-2.10;99.90;;;;;;5074461;28;20492;-69
2021/12/22 09:26:59;;;;;;;1999.90;999.90;;;-2.20;99.90;;;;;;5074778;28;20466;-70
2021/12/22 09:29:26;;;;;;;1999.90;999.90;;;-2.00;99.90;;;;;;5084150;28;20506;-70
2021/12/22 09:31:53;;;;;;;1999.90;999.90;;;-1.50;99.90;;;;;;5077397;28;20446;-70
2021/12/22 09:34:20;;;;;;;1999.90;999.90;;;-1.80;99.90;;;;;;5066692;28;20537;-71
2021/12/22 09:36:46;;;;;;;1999.90;999.90;;;-1.80;99.90;;;;;;5066960;28;20462;-70
2021/12/22 09:39:14;;;;;;;1999.90;999.90;;;-1.90;99.90;;;;;;5066504;28;20465;-70
2021/12/22 09:41:41;;;;;;;1999.90;999.90;;;-1.70;99.90;;;;;;5066822;28;20486;-70
2021/12/22 09:44:08;;;;;;;1999.90;999.90;;;-1.40;99.90;;;;;;5066723;28;20442;-70
2021/12/22 09:46:38;;;;;;;1999.90;999.90;;;-1.40;99.90;;;;;;5065708;28;20704;-70
2021/12/22 09:49:19;;;;;;;1999.90;999.90;;;-1.40;99.90;;;;;;5068127;28;20453;-70
2021/12/22 09:54:33;;;;;;;1999.90;999.90;;;-0.90;99.90;;;;;;5064516;28;20488;-70
2021/12/22 09:57:00;;;;;;;1999.90;999.90;;;-1.30;99.90;;;;;;5061420;28;20470;-71
2021/12/22 09:59:28;;;;;;;1999.90;999.90;;;-1.20;99.90;;;;;;5060578;28;20875;-70
2021/12/22 10:01:55;;;;;;;1999.90;999.90;;;-0.90;99.90;;;;;;5062607;28;20551;-70
2021/12/22 10:04:22;;;;;;;1999.90;999.90;;;-1.00;99.90;;;;;;5061631;28;20450;-68
2021/12/22 10:06:48;;;;;;;1999.90;999.90;;;-0.90;99.90;;;;;;5057763;28;20496;-67
2021/12/22 10:09:15;;;;;;;1999.90;999.90;;;-0.90;99.90;;;;;;5070825;28;20881;-67
2021/12/22 10:11:45;;;;;;;1999.90;999.90;;;-0.80;99.90;;;;;;5074246;28;20450;-68
2021/12/22 10:14:20;;;;;;;1999.90;999.90;;;-0.80;99.90;;;;;;5061631;28;20442;-68
2021/12/22 10:16:49;;;;;;;1999.90;999.90;;;-0.80;99.90;;;;;;5053978;28;20477;-68
2021/12/22 10:19:15;;;;;;;1999.90;999.90;;;-0.60;99.90;;;;;;5054967;28;20457;-68
2021/12/22 10:21:54;;;;;;;1999.90;999.90;;;-0.60;99.90;;;;;;5053352;28;20508;-68
2021/12/22 10:24:32;;;;;;;1999.90;999.90;;;-0.60;99.90;;;;;;5054244;28;21094;-67
2021/12/22 10:27:05;;;;;;;1999.90;999.90;;;-0.60;99.90;;;;;;5057888;28;20520;-68
2021/12/22 10:29:33;;;;;;;1999.90;999.90;;;-0.50;99.90;;;;;;5054211;28;20488;-68
2021/12/22 10:32:08;;;;;;;1999.90;999.90;;;-0.40;99.90;;;;;;5053597;28;20439;-68
2021/12/22 10:34:35;;;;;;;1999.90;999.90;;;-0.30;99.90;;;;;;5053078;28;20553;-69
2021/12/22 10:37:02;;;;;;;1999.90;999.90;;;-0.20;99.90;;;;;;5047904;28;20546;-68
2021/12/22 10:39:30;;;;;;;1999.90;999.90;;;-0.30;99.90;;;;;;5053863;28;20508;-68
2021/12/22 10:42:05;;;;;;;1999.90;999.90;;;-0.40;99.90;;;;;;5053568;28;20555;-67
2021/12/22 10:44:36;;;;;;;1999.90;999.90;;;-0.40;99.90;;;;;;5053994;28;20425;-69
2021/12/22 10:47:34;;;;;;;1999.90;999.90;;;-0.30;99.90;;;;;;5053611;28;20470;-68
2021/12/22 10:50:02;;;;;;;1999.90;999.90;;;-0.30;99.90;;;;;;5043888;28;20526;-67
2021/12/22 10:52:30;;;;;;;1999.90;999.90;;;-0.30;99.90;;;;;;5075219;28;20444;-69
2021/12/22 10:55:08;;;;;;;1999.90;999.90;;;-0.10;99.90;;;;;;5088830;28;20442;-67
2021/12/22 10:57:41;;;;;;;1999.90;999.90;;;-0.10;99.90;;;;;;5073943;28;20435;-68
2021/12/22 11:00:15;;;;;;;1999.90;999.90;;;-0.20;99.90;;;;;;5073561;28;20437;-68
2021/12/22 11:02:49;;;;;;;1999.90;999.90;;;-0.20;99.90;;;;;;5073484;28;20452;-67
2021/12/22 11:05:27;;;;;;;1999.90;999.90;;;-0.20;99.90;;;;;;5069841;28;20446;-67
2021/12/22 11:07:54;;;;;;;1999.90;999.90;;;-0.10;99.90;;;;;;5053280;28;20476;-70
2021/12/22 11:10:25;;;;;;;1999.90;999.90;;;0.10;99.90;;;;;;5052367;28;20529;-71
2021/12/22 11:13:03;;;;;;;1999.90;999.90;;;0.20;99.90;;;;;;5053668;28;20525;-68
2021/12/22 11:15:30;;;;;;;1999.90;999.90;;;0.40;99.90;;;;;;5052684;28;20846;-68
2021/12/22 11:17:57;;;;;;;1999.90;999.90;;;0.40;99.90;;;;;;5052784;28;20496;-68
2021/12/22 11:20:25;;;;;;;1999.90;999.90;;;0.20;99.90;;;;;;5058582;28;20445;-68
2021/12/22 11:22:57;;;;;;;1999.90;999.90;;;0.10;99.90;;;;;;5073107;28;20933;-68
2021/12/22 11:25:25;;;;;;;1999.90;999.90;;;0.20;99.90;;;;;;5072752;28;20465;-68
2021/12/22 11:27:52;;;;;;;1999.90;999.90;;;0.30;99.90;;;;;;5064780;28;20825;-68
2021/12/22 11:30:21;;;;;;;1999.90;999.90;;;0.40;99.90;;;;;;5062890;28;20887;-68
2021/12/22 11:32:49;;;;;;;1999.90;999.90;;;0.50;99.90;;;;;;5072823;28;20453;-68
2021/12/22 11:35:16;;;;;;;1999.90;999.90;;;0.50;99.90;;;;;;5054487;28;20500;-68
2021/12/22 11:37:44;;;;;;;1999.90;999.90;;;0.50;99.90;;;;;;5052714;28;20461;-68
2021/12/22 11:40:12;;;;;;;1999.90;999.90;;;0.60;99.90;;;;;;5052314;28;20441;-68
2021/12/22 11:42:40;;;;;;;1999.90;999.90;;;0.60;99.90;;;;;;5052483;28;20600;-68
2021/12/22 11:45:11;;;;;;;1999.90;999.90;;;0.50;99.90;;;;;;5052126;28;20499;-68
2021/12/22 11:47:43;;;;;;;1999.90;999.90;;;0.70;99.90;;;;;;5052693;28;20426;-70
2021/12/22 11:50:16;;;;;;;1999.90;999.90;;;0.70;99.90;;;;;;5065827;28;20503;-71
2021/12/22 11:52:52;;;;;;;1999.90;999.90;;;0.80;99.90;;;;;;5072271;28;20422;-69
2021/12/22 11:55:21;;;;;;;1999.90;999.90;;;0.80;99.90;;;;;;5072350;28;20464;-69
2021/12/22 11:57:49;;;;;;;1999.90;999.90;;;0.80;99.90;;;;;;5071996;28;20862;-68
2021/12/22 12:00:29;;;;;;;1999.90;999.90;;;0.90;99.90;;;;;;5070279;28;20498;-68
2021/12/22 12:02:59;;;;;;;1999.90;999.90;;;0.80;99.90;;;;;;5054143;28;20446;-68
2021/12/22 12:05:27;;;;;;;1999.90;999.90;;;0.70;99.90;;;;;;5060282;28;20463;-69
2021/12/22 12:07:55;;;;;;;1999.90;999.90;;;0.60;99.90;;;;;;5052000;28;20500;-68
2021/12/22 12:10:44;;;;;;;1999.90;999.90;;;0.60;99.90;;;;;;5051316;28;20450;-68
2021/12/22 12:13:21;;;;;;;1999.90;999.90;;;0.50;99.90;;;;;;5051932;28;20446;-68
2021/12/22 12:22:28;;;;;;;1999.90;999.90;;;0.40;99.90;;;;;;5053390;28;20512;-69
2021/12/22 12:25:08;;;;;;;1999.90;999.90;;;0.20;99.90;;;;;;5057026;28;20469;-69